sensor_id;sensor_type;location;lat;lon;timestamp;pressure;altitude;pressure_sealevel;temperature;humidity
53041;BME280;39326;42.650;23.248;2022-12-29T00:01:39;93394.09;;;3.30;83.41
53041;BME280;39326;42.650;23.248;2022-12-29T00:04:06;93405.84;;;3.32;83.94
53041;BME280;39326;42.650;23.248;2022-12-29T00:06:31;93407.06;;;3.35;83.15
53041;BME280;39326;42.650;23.248;2022-12-29T00:08:57;93414.09;;;3.31;83.73
53041;BME280;39326;42.650;23.248;2022-12-29T00:11:24;93411.03;;;3.12;84.10
53041;BME280;39326;42.650;23.248;2022-12-29T00:13:51;93417.97;;;3.25;84.21
53041;BME280;39326;42.650;23.248;2022-12-29T00:16:36;93413.16;;;3.36;83.65
53041;BME280;39326;42.650;23.248;2022-12-29T00:19:03;93411.09;;;3.41;82.78
53041;BME280;39326;42.650;23.248;2022-12-29T00:21:29;93407.56;;;3.37;82.98
53041;BME280;39326;42.650;23.248;2022-12-29T00:24:20;93413.75;;;3.32;83.82
53041;BME280;39326;42.650;23.248;2022-12-29T00:26:56;93418.59;;;3.30;83.99
53041;BME280;39326;42.650;23.248;2022-12-29T00:29:41;93422.13;;;3.34;83.48
53041;BME280;39326;42.650;23.248;2022-12-29T00:32:25;93426.50;;;3.30;83.31
53041;BME280;39326;42.650;23.248;2022-12-29T00:35:34;93428.22;;;3.18;83.93
53041;BME280;39326;42.650;23.248;2022-12-29T00:38:05;93434.28;;;3.10;85.09
53041;BME280;39326;42.650;23.248;2022-12-29T00:40:51;93430.59;;;3.11;85.01
53041;BME280;39326;42.650;23.248;2022-12-29T00:43:35;93435.78;;;3.28;83.76
53041;BME280;39326;42.650;23.248;2022-12-29T00:46:19;93431.16;;;3.25;83.01
53041;BME280;39326;42.650;23.248;2022-12-29T00:48:45;93435.66;;;3.24;83.49
53041;BME280;39326;42.650;23.248;2022-12-29T00:51:29;93443.72;;;3.19;83.47
53041;BME280;39326;42.650;23.248;2022-12-29T00:53:55;93436.75;;;3.23;83.10
53041;BME280;39326;42.650;23.248;2022-12-29T00:56:20;93438.91;;;3.21;83.20
53041;BME280;39326;42.650;23.248;2022-12-29T00:58:46;93422.19;;;3.08;83.82
53041;BME280;39326;42.650;23.248;2022-12-29T01:01:12;93434.88;;;3.24;83.31
53041;BME280;39326;42.650;23.248;2022-12-29T01:03:38;93432.06;;;3.29;82.66
53041;BME280;39326;42.650;23.248;2022-12-29T01:06:06;93431.28;;;3.28;82.82
53041;BME280;39326;42.650;23.248;2022-12-29T01:08:32;93428.19;;;3.26;82.47
53041;BME280;39326;42.650;23.248;2022-12-29T01:11:01;93426.78;;;3.29;82.31
53041;BME280;39326;42.650;23.248;2022-12-29T01:13:28;93425.25;;;3.28;82.08
53041;BME280;39326;42.650;23.248;2022-12-29T01:15:55;93429.47;;;3.20;81.96
53041;BME280;39326;42.650;23.248;2022-12-29T01:18:21;93433.50;;;3.09;82.17
53041;BME280;39326;42.650;23.248;2022-12-29T01:20:47;93426.56;;;3.04;82.83
53041;BME280;39326;42.650;23.248;2022-12-29T01:23:13;93427.94;;;3.11;83.16
53041;BME280;39326;42.650;23.248;2022-12-29T01:25:38;93425.16;;;3.07;82.41
53041;BME280;39326;42.650;23.248;2022-12-29T01:28:05;93420.94;;;3.15;82.08
53041;BME280;39326;42.650;23.248;2022-12-29T01:30:32;93416.16;;;3.08;82.32
53041;BME280;39326;42.650;23.248;2022-12-29T01:32:58;93422.34;;;3.03;82.78
53041;BME280;39326;42.650;23.248;2022-12-29T01:35:24;93419.59;;;3.00;82.18
53041;BME280;39326;42.650;23.248;2022-12-29T01:37:50;93406.09;;;3.01;83.06
53041;BME280;39326;42.650;23.248;2022-12-29T01:40:16;93409.66;;;3.05;82.03
53041;BME280;39326;42.650;23.248;2022-12-29T01:42:41;93402.38;;;3.02;82.40
53041;BME280;39326;42.650;23.248;2022-12-29T01:45:12;93392.75;;;3.06;82.22
53041;BME280;39326;42.650;23.248;2022-12-29T01:47:43;93395.09;;;2.99;82.76
53041;BME280;39326;42.650;23.248;2022-12-29T01:50:14;93389.19;;;3.02;82.35
53041;BME280;39326;42.650;23.248;2022-12-29T01:52:49;93392.31;;;2.96;82.46
53041;BME280;39326;42.650;23.248;2022-12-29T01:55:17;93396.34;;;2.93;82.96
53041;BME280;39326;42.650;23.248;2022-12-29T01:57:46;93394.34;;;2.90;83.37
53041;BME280;39326;42.650;23.248;2022-12-29T02:00:14;93392.47;;;2.99;82.45
53041;BME280;39326;42.650;23.248;2022-12-29T02:02:51;93383.19;;;2.93;83.08
53041;BME280;39326;42.650;23.248;2022-12-29T02:05:38;93386.16;;;2.92;83.83
53041;BME280;39326;42.650;23.248;2022-12-29T02:08:05;93371.72;;;2.89;84.02
53041;BME280;39326;42.650;23.248;2022-12-29T02:10:32;93384.75;;;2.86;84.04
53041;BME280;39326;42.650;23.248;2022-12-29T02:12:59;93380.88;;;2.92;83.80
53041;BME280;39326;42.650;23.248;2022-12-29T02:32:21;93378.41;;;2.87;85.57
53041;BME280;39326;42.650;23.248;2022-12-29T02:43:16;93379.00;;;2.92;85.80
53041;BME280;39326;42.650;23.248;2022-12-29T02:48:50;93384.75;;;2.86;85.50
53041;BME280;39326;42.650;23.248;2022-12-29T02:51:56;93384.72;;;2.94;85.94
53041;BME280;39326;42.650;23.248;2022-12-29T02:54:24;93374.50;;;2.93;84.89
53041;BME280;39326;42.650;23.248;2022-12-29T02:57:15;93380.69;;;2.97;85.18
53041;BME280;39326;42.650;23.248;2022-12-29T02:59:42;93374.94;;;3.03;85.08
53041;BME280;39326;42.650;23.248;2022-12-29T03:08:06;93363.31;;;3.04;84.91
53041;BME280;39326;42.650;23.248;2022-12-29T03:10:59;93359.28;;;3.07;84.34
53041;BME280;39326;42.650;23.248;2022-12-29T03:16:35;93351.88;;;3.00;84.48
53041;BME280;39326;42.650;23.248;2022-12-29T03:19:24;93357.94;;;2.92;83.40
53041;BME280;39326;42.650;23.248;2022-12-29T03:22:21;93342.13;;;2.84;84.06
53041;BME280;39326;42.650;23.248;2022-12-29T03:25:03;93343.22;;;2.83;83.75
53041;BME280;39326;42.650;23.248;2022-12-29T03:27:39;93352.84;;;2.78;83.26
53041;BME280;39326;42.650;23.248;2022-12-29T03:30:06;93359.22;;;2.69;84.25
53041;BME280;39326;42.650;23.248;2022-12-29T03:32:43;93358.44;;;2.60;84.11
53041;BME280;39326;42.650;23.248;2022-12-29T03:35:13;93358.75;;;2.58;83.18
53041;BME280;39326;42.650;23.248;2022-12-29T03:37:43;93361.56;;;2.53;83.14
53041;BME280;39326;42.650;23.248;2022-12-29T03:40:11;93361.25;;;2.46;83.30
53041;BME280;39326;42.650;23.248;2022-12-29T03:42:38;93357.84;;;2.45;83.31
53041;BME280;39326;42.650;23.248;2022-12-29T03:45:06;93356.47;;;2.39;82.90
53041;BME280;39326;42.650;23.248;2022-12-29T03:47:33;93356.16;;;2.41;82.94
53041;BME280;39326;42.650;23.248;2022-12-29T03:49:59;93364.22;;;2.36;83.48
53041;BME280;39326;42.650;23.248;2022-12-29T03:52:25;93367.00;;;2.31;82.99
53041;BME280;39326;42.650;23.248;2022-12-29T03:54:52;93364.97;;;2.27;83.09
53041;BME280;39326;42.650;23.248;2022-12-29T03:57:18;93371.19;;;2.23;83.78
53041;BME280;39326;42.650;23.248;2022-12-29T03:59:44;93378.31;;;2.22;83.35
53041;BME280;39326;42.650;23.248;2022-12-29T04:02:09;93376.59;;;2.26;82.54
53041;BME280;39326;42.650;23.248;2022-12-29T04:04:35;93381.53;;;2.28;82.49
53041;BME280;39326;42.650;23.248;2022-12-29T04:07:01;93382.47;;;2.15;82.76
53041;BME280;39326;42.650;23.248;2022-12-29T04:09:27;93388.19;;;1.99;83.65
53041;BME280;39326;42.650;23.248;2022-12-29T04:11:53;93381.66;;;1.97;83.99
53041;BME280;39326;42.650;23.248;2022-12-29T04:14:19;93381.84;;;1.92;84.73
53041;BME280;39326;42.650;23.248;2022-12-29T04:16:45;93385.06;;;1.89;84.08
53041;BME280;39326;42.650;23.248;2022-12-29T04:19:11;93384.91;;;1.85;85.27
53041;BME280;39326;42.650;23.248;2022-12-29T04:21:37;93384.16;;;1.93;84.35
53041;BME280;39326;42.650;23.248;2022-12-29T04:24:03;93383.38;;;1.93;84.42
53041;BME280;39326;42.650;23.248;2022-12-29T04:26:32;93386.16;;;1.88;84.58
53041;BME280;39326;42.650;23.248;2022-12-29T04:28:57;93388.00;;;1.96;84.96
53041;BME280;39326;42.650;23.248;2022-12-29T04:31:23;93383.88;;;2.04;84.57
53041;BME280;39326;42.650;23.248;2022-12-29T04:33:49;93385.56;;;1.99;84.46
53041;BME280;39326;42.650;23.248;2022-12-29T04:36:14;93385.56;;;1.99;85.63
53041;BME280;39326;42.650;23.248;2022-12-29T04:38:40;93388.50;;;1.98;85.09
53041;BME280;39326;42.650;23.248;2022-12-29T04:41:06;93388.97;;;2.00;86.05
53041;BME280;39326;42.650;23.248;2022-12-29T04:43:32;93400.44;;;2.04;85.98
53041;BME280;39326;42.650;23.248;2022-12-29T04:45:57;93396.56;;;2.10;85.87
53041;BME280;39326;42.650;23.248;2022-12-29T04:48:23;93408.63;;;2.11;86.12
53041;BME280;39326;42.650;23.248;2022-12-29T04:50:49;93407.69;;;2.16;86.26
53041;BME280;39326;42.650;23.248;2022-12-29T04:53:16;93409.41;;;2.12;86.46
53041;BME280;39326;42.650;23.248;2022-12-29T04:55:42;93407.38;;;2.09;86.20
53041;BME280;39326;42.650;23.248;2022-12-29T04:58:08;93416.66;;;2.15;87.22
53041;BME280;39326;42.650;23.248;2022-12-29T05:00:34;93403.81;;;2.22;86.03
53041;BME280;39326;42.650;23.248;2022-12-29T05:02:59;93416.69;;;2.23;86.51
53041;BME280;39326;42.650;23.248;2022-12-29T05:05:25;93415.75;;;2.28;86.80
53041;BME280;39326;42.650;23.248;2022-12-29T05:07:51;93404.75;;;2.26;86.56
53041;BME280;39326;42.650;23.248;2022-12-29T05:10:17;93410.94;;;2.13;88.15
53041;BME280;39326;42.650;23.248;2022-12-29T05:12:43;93409.09;;;2.13;87.98
53041;BME280;39326;42.650;23.248;2022-12-29T05:15:10;93416.06;;;2.26;86.98
53041;BME280;39326;42.650;23.248;2022-12-29T05:20:42;93421.47;;;2.21;88.76
53041;BME280;39326;42.650;23.248;2022-12-29T05:23:08;93421.63;;;2.08;89.76
53041;BME280;39326;42.650;23.248;2022-12-29T05:25:34;93423.66;;;2.19;88.53
53041;BME280;39326;42.650;23.248;2022-12-29T05:28:00;93421.19;;;2.32;88.28
53041;BME280;39326;42.650;23.248;2022-12-29T05:30:25;93416.84;;;2.44;87.65
53041;BME280;39326;42.650;23.248;2022-12-29T05:32:51;93413.91;;;2.55;85.94
53041;BME280;39326;42.650;23.248;2022-12-29T05:35:17;93416.53;;;2.55;86.48
53041;BME280;39326;42.650;23.248;2022-12-29T05:37:43;93418.25;;;2.50;86.96
53041;BME280;39326;42.650;23.248;2022-12-29T05:40:09;93410.78;;;2.52;86.64
53041;BME280;39326;42.650;23.248;2022-12-29T05:42:36;93418.69;;;2.52;86.73
53041;BME280;39326;42.650;23.248;2022-12-29T05:45:02;93423.03;;;2.57;86.76
53041;BME280;39326;42.650;23.248;2022-12-29T05:47:28;93408.63;;;2.46;87.07
53041;BME280;39326;42.650;23.248;2022-12-29T05:49:54;93420.88;;;2.59;87.10
53041;BME280;39326;42.650;23.248;2022-12-29T05:52:44;93423.34;;;2.64;86.91
53041;BME280;39326;42.650;23.248;2022-12-29T05:55:10;93429.25;;;2.61;87.38
53041;BME280;39326;42.650;23.248;2022-12-29T05:57:36;93428.28;;;2.66;87.27
53041;BME280;39326;42.650;23.248;2022-12-29T06:00:04;93434.81;;;2.68;86.04
53041;BME280;39326;42.650;23.248;2022-12-29T06:02:30;93434.78;;;2.60;86.32
53041;BME280;39326;42.650;23.248;2022-12-29T06:04:55;93430.78;;;2.45;86.91
53041;BME280;39326;42.650;23.248;2022-12-29T06:07:21;93429.53;;;2.51;87.24
53041;BME280;39326;42.650;23.248;2022-12-29T06:09:46;93433.41;;;2.45;87.49
53041;BME280;39326;42.650;23.248;2022-12-29T06:12:12;93436.19;;;2.57;87.85
53041;BME280;39326;42.650;23.248;2022-12-29T06:14:38;93436.06;;;2.62;86.96
53041;BME280;39326;42.650;23.248;2022-12-29T06:17:04;93426.91;;;2.68;86.84
53041;BME280;39326;42.650;23.248;2022-12-29T06:19:30;93442.88;;;2.55;87.61
53041;BME280;39326;42.650;23.248;2022-12-29T06:21:55;93436.03;;;2.53;87.85
53041;BME280;39326;42.650;23.248;2022-12-29T06:24:21;93432.16;;;2.60;87.10
53041;BME280;39326;42.650;23.248;2022-12-29T06:26:46;93437.59;;;2.46;88.54
53041;BME280;39326;42.650;23.248;2022-12-29T06:29:12;93432.94;;;2.51;88.09
53041;BME280;39326;42.650;23.248;2022-12-29T06:31:43;93437.59;;;2.63;87.57
53041;BME280;39326;42.650;23.248;2022-12-29T06:34:12;93441.16;;;2.67;87.24
53041;BME280;39326;42.650;23.248;2022-12-29T06:36:38;93439.91;;;2.82;87.28
53041;BME280;39326;42.650;23.248;2022-12-29T06:39:04;93441.91;;;2.76;86.63
53041;BME280;39326;42.650;23.248;2022-12-29T06:41:30;93439.59;;;2.84;86.93
53041;BME280;39326;42.650;23.248;2022-12-29T06:43:56;93449.03;;;2.93;86.26
53041;BME280;39326;42.650;23.248;2022-12-29T06:46:22;93449.50;;;3.04;86.42
53041;BME280;39326;42.650;23.248;2022-12-29T06:48:48;93451.81;;;3.05;86.36
53041;BME280;39326;42.650;23.248;2022-12-29T06:51:14;93448.53;;;3.08;85.63
53041;BME280;39326;42.650;23.248;2022-12-29T06:53:39;93444.88;;;2.92;86.54
53041;BME280;39326;42.650;23.248;2022-12-29T06:56:05;93451.53;;;2.98;86.65
53041;BME280;39326;42.650;23.248;2022-12-29T06:58:31;93454.91;;;2.90;86.87
53041;BME280;39326;42.650;23.248;2022-12-29T07:00:57;93445.31;;;2.94;86.42
53041;BME280;39326;42.650;23.248;2022-12-29T07:03:23;93447.47;;;3.01;86.31
53041;BME280;39326;42.650;23.248;2022-12-29T07:05:49;93448.09;;;3.06;86.46
53041;BME280;39326;42.650;23.248;2022-12-29T07:08:14;93449.59;;;3.25;85.93
53041;BME280;39326;42.650;23.248;2022-12-29T07:10:40;93450.41;;;3.08;85.98
53041;BME280;39326;42.650;23.248;2022-12-29T07:13:06;93446.19;;;3.24;85.87
53041;BME280;39326;42.650;23.248;2022-12-29T07:15:38;93452.69;;;3.36;86.14
53041;BME280;39326;42.650;23.248;2022-12-29T07:18:04;93454.66;;;3.47;85.09
53041;BME280;39326;42.650;23.248;2022-12-29T07:20:30;93447.34;;;3.61;84.64
53041;BME280;39326;42.650;23.248;2022-12-29T07:22:56;93448.28;;;3.57;85.13
53041;BME280;39326;42.650;23.248;2022-12-29T07:25:22;93441.78;;;3.54;84.63
53041;BME280;39326;42.650;23.248;2022-12-29T07:27:47;93438.81;;;3.47;84.41
53041;BME280;39326;42.650;23.248;2022-12-29T07:30:14;93447.50;;;3.48;84.57
53041;BME280;39326;42.650;23.248;2022-12-29T07:32:40;93450.25;;;3.69;84.23
53041;BME280;39326;42.650;23.248;2022-12-29T07:35:06;93445.66;;;3.86;84.05
53041;BME280;39326;42.650;23.248;2022-12-29T07:37:32;93448.00;;;3.88;82.63
53041;BME280;39326;42.650;23.248;2022-12-29T07:39:58;93447.75;;;4.02;82.48
53041;BME280;39326;42.650;23.248;2022-12-29T07:42:24;93443.44;;;3.97;82.79
53041;BME280;39326;42.650;23.248;2022-12-29T07:44:49;93444.75;;;3.82;82.83
53041;BME280;39326;42.650;23.248;2022-12-29T07:47:15;93446.78;;;4.15;82.40
53041;BME280;39326;42.650;23.248;2022-12-29T07:49:40;93451.69;;;4.25;82.38
53041;BME280;39326;42.650;23.248;2022-12-29T07:52:06;93446.84;;;3.98;82.91
53041;BME280;39326;42.650;23.248;2022-12-29T07:54:32;93452.06;;;4.15;82.50
53041;BME280;39326;42.650;23.248;2022-12-29T07:56:59;93453.56;;;4.25;81.93
53041;BME280;39326;42.650;23.248;2022-12-29T07:59:26;93455.03;;;4.34;82.53
53041;BME280;39326;42.650;23.248;2022-12-29T08:01:51;93453.91;;;4.44;82.00
53041;BME280;39326;42.650;23.248;2022-12-29T08:04:17;93459.06;;;4.61;81.58
53041;BME280;39326;42.650;23.248;2022-12-29T08:06:42;93467.78;;;4.62;81.61
53041;BME280;39326;42.650;23.248;2022-12-29T08:09:09;93462.28;;;4.67;81.21
53041;BME280;39326;42.650;23.248;2022-12-29T08:11:34;93463.56;;;4.82;81.15
53041;BME280;39326;42.650;23.248;2022-12-29T08:14:02;93458.56;;;4.68;81.34
53041;BME280;39326;42.650;23.248;2022-12-29T08:16:27;93468.16;;;4.93;81.28
53041;BME280;39326;42.650;23.248;2022-12-29T08:18:54;93463.72;;;5.18;80.85
53041;BME280;39326;42.650;23.248;2022-12-29T08:21:19;93461.16;;;5.43;79.88
53041;BME280;39326;42.650;23.248;2022-12-29T08:23:45;93458.06;;;5.53;79.48
53041;BME280;39326;42.650;23.248;2022-12-29T08:26:11;93466.56;;;5.46;78.76
53041;BME280;39326;42.650;23.248;2022-12-29T08:28:37;93460.78;;;5.32;78.70
53041;BME280;39326;42.650;23.248;2022-12-29T08:31:03;93465.66;;;5.42;79.15
53041;BME280;39326;42.650;23.248;2022-12-29T08:33:29;93460.47;;;5.34;78.70
53041;BME280;39326;42.650;23.248;2022-12-29T08:36:03;93458.22;;;5.23;78.01
53041;BME280;39326;42.650;23.248;2022-12-29T08:38:28;93459.81;;;5.37;78.57
53041;BME280;39326;42.650;23.248;2022-12-29T08:40:56;93458.78;;;5.74;78.35
53041;BME280;39326;42.650;23.248;2022-12-29T08:43:22;93455.50;;;6.02;77.54
53041;BME280;39326;42.650;23.248;2022-12-29T08:45:48;93460.00;;;6.01;76.53
53041;BME280;39326;42.650;23.248;2022-12-29T08:48:14;93458.91;;;6.15;75.87
53041;BME280;39326;42.650;23.248;2022-12-29T08:50:44;93461.97;;;6.17;75.71
53041;BME280;39326;42.650;23.248;2022-12-29T08:53:09;93471.47;;;6.42;75.34
53041;BME280;39326;42.650;23.248;2022-12-29T08:55:35;93463.50;;;6.42;74.78
53041;BME280;39326;42.650;23.248;2022-12-29T08:58:01;93458.34;;;6.58;74.54
53041;BME280;39326;42.650;23.248;2022-12-29T09:00:27;93456.25;;;6.92;73.86
53041;BME280;39326;42.650;23.248;2022-12-29T09:02:52;93460.94;;;7.10;72.52
53041;BME280;39326;42.650;23.248;2022-12-29T09:05:18;93449.41;;;7.19;71.96
53041;BME280;39326;42.650;23.248;2022-12-29T09:07:44;93447.19;;;7.21;71.64
53041;BME280;39326;42.650;23.248;2022-12-29T09:10:10;93439.97;;;7.33;71.24
53041;BME280;39326;42.650;23.248;2022-12-29T09:12:35;93443.53;;;6.97;71.36
53041;BME280;39326;42.650;23.248;2022-12-29T09:15:02;93449.50;;;7.22;71.87
53041;BME280;39326;42.650;23.248;2022-12-29T09:17:27;93444.50;;;7.33;72.38
53041;BME280;39326;42.650;23.248;2022-12-29T09:20:16;93438.91;;;7.22;71.63
53041;BME280;39326;42.650;23.248;2022-12-29T09:22:43;93442.31;;;7.51;71.36
53041;BME280;39326;42.650;23.248;2022-12-29T09:25:09;93436.06;;;7.15;70.61
53041;BME280;39326;42.650;23.248;2022-12-29T09:27:36;93437.34;;;7.65;69.26
53041;BME280;39326;42.650;23.248;2022-12-29T09:30:03;93437.00;;;7.98;68.80
53041;BME280;39326;42.650;23.248;2022-12-29T09:32:29;93431.84;;;7.74;68.53
53041;BME280;39326;42.650;23.248;2022-12-29T09:34:55;93432.28;;;8.07;68.57
53041;BME280;39326;42.650;23.248;2022-12-29T09:37:21;93426.63;;;8.09;67.00
53041;BME280;39326;42.650;23.248;2022-12-29T09:39:47;93423.00;;;8.17;66.83
53041;BME280;39326;42.650;23.248;2022-12-29T09:42:27;93425.84;;;7.92;66.24
53041;BME280;39326;42.650;23.248;2022-12-29T09:45:24;93424.16;;;7.09;67.92
53041;BME280;39326;42.650;23.248;2022-12-29T09:47:54;93419.84;;;7.32;69.96
53041;BME280;39326;42.650;23.248;2022-12-29T09:52:54;93414.16;;;8.29;66.76
53041;BME280;39326;42.650;23.248;2022-12-29T09:55:23;93412.47;;;8.56;66.04
53041;BME280;39326;42.650;23.248;2022-12-29T09:57:56;93404.06;;;8.18;65.85
53041;BME280;39326;42.650;23.248;2022-12-29T10:00:36;93403.22;;;7.99;66.39
53041;BME280;39326;42.650;23.248;2022-12-29T10:03:15;93397.97;;;8.18;65.92
53041;BME280;39326;42.650;23.248;2022-12-29T10:08:47;93397.59;;;7.84;66.31
53041;BME280;39326;42.650;23.248;2022-12-29T10:23:01;93394.03;;;8.28;65.55
53041;BME280;39326;42.650;23.248;2022-12-29T10:25:32;93395.47;;;8.25;66.64
53041;BME280;39326;42.650;23.248;2022-12-29T10:28:04;93391.66;;;8.42;65.98
53041;BME280;39326;42.650;23.248;2022-12-29T10:30:33;93382.06;;;8.53;65.06
53041;BME280;39326;42.650;23.248;2022-12-29T10:33:03;93385.06;;;8.36;64.39
53041;BME280;39326;42.650;23.248;2022-12-29T10:35:37;93382.13;;;8.22;65.57
53041;BME280;39326;42.650;23.248;2022-12-29T10:41:08;93371.59;;;8.09;66.63
53041;BME280;39326;42.650;23.248;2022-12-29T10:43:47;93374.72;;;8.46;65.77
53041;BME280;39326;42.650;23.248;2022-12-29T10:46:19;93375.28;;;8.75;64.62
53041;BME280;39326;42.650;23.248;2022-12-29T10:48:47;93365.84;;;8.58;64.69
53041;BME280;39326;42.650;23.248;2022-12-29T10:51:38;93363.59;;;8.60;63.50
53041;BME280;39326;42.650;23.248;2022-12-29T10:59:50;93344.88;;;8.37;65.35
53041;BME280;39326;42.650;23.248;2022-12-29T11:05:05;93346.34;;;8.93;62.79
53041;BME280;39326;42.650;23.248;2022-12-29T11:07:34;93333.13;;;9.19;64.12
53041;BME280;39326;42.650;23.248;2022-12-29T11:10:40;93344.34;;;9.28;61.41
53041;BME280;39326;42.650;23.248;2022-12-29T11:15:45;93339.72;;;9.98;61.98
53041;BME280;39326;42.650;23.248;2022-12-29T11:20:47;93342.69;;;10.16;59.94
53041;BME280;39326;42.650;23.248;2022-12-29T11:23:36;93336.00;;;10.29;59.00
53041;BME280;39326;42.650;23.248;2022-12-29T11:28:37;93339.16;;;10.08;59.53
53041;BME280;39326;42.650;23.248;2022-12-29T11:31:05;93334.63;;;10.12;58.63
53041;BME280;39326;42.650;23.248;2022-12-29T11:33:33;93334.97;;;9.61;59.98
53041;BME280;39326;42.650;23.248;2022-12-29T11:36:04;93330.84;;;9.41;60.68
53041;BME280;39326;42.650;23.248;2022-12-29T11:38:36;93323.88;;;9.55;60.44
53041;BME280;39326;42.650;23.248;2022-12-29T11:41:03;93331.53;;;9.84;60.19
53041;BME280;39326;42.650;23.248;2022-12-29T11:43:37;93329.53;;;9.77;59.94
53041;BME280;39326;42.650;23.248;2022-12-29T11:46:05;93322.41;;;9.85;60.01
53041;BME280;39326;42.650;23.248;2022-12-29T11:48:38;93322.56;;;9.23;60.59
53041;BME280;39326;42.650;23.248;2022-12-29T11:51:05;93318.31;;;9.41;60.69
53041;BME280;39326;42.650;23.248;2022-12-29T11:56:08;93324.41;;;9.65;60.22
53041;BME280;39326;42.650;23.248;2022-12-29T11:58:37;93324.16;;;9.73;60.35
53041;BME280;39326;42.650;23.248;2022-12-29T12:01:33;93327.47;;;9.44;60.25
53041;BME280;39326;42.650;23.248;2022-12-29T12:04:21;93322.63;;;9.49;60.37
53041;BME280;39326;42.650;23.248;2022-12-29T12:07:11;93323.34;;;9.46;60.73
53041;BME280;39326;42.650;23.248;2022-12-29T12:09:45;93319.50;;;9.21;61.73
53041;BME280;39326;42.650;23.248;2022-12-29T12:12:27;93297.38;;;9.17;60.72
53041;BME280;39326;42.650;23.248;2022-12-29T12:14:58;93312.22;;;9.41;61.37
53041;BME280;39326;42.650;23.248;2022-12-29T12:17:40;93312.34;;;9.48;60.90
53041;BME280;39326;42.650;23.248;2022-12-29T12:20:48;93312.56;;;9.62;60.24
53041;BME280;39326;42.650;23.248;2022-12-29T12:23:25;93301.69;;;9.74;59.99
53041;BME280;39326;42.650;23.248;2022-12-29T12:25:57;93302.78;;;9.70;60.33
53041;BME280;39326;42.650;23.248;2022-12-29T12:28:32;93300.47;;;9.68;60.65
53041;BME280;39326;42.650;23.248;2022-12-29T12:31:02;93303.94;;;9.23;61.75
53041;BME280;39326;42.650;23.248;2022-12-29T12:33:36;93301.31;;;9.72;60.66
53041;BME280;39326;42.650;23.248;2022-12-29T12:50:16;93291.88;;;9.52;60.30
53041;BME280;39326;42.650;23.248;2022-12-29T12:56:28;93283.44;;;8.81;63.11
53041;BME280;39326;42.650;23.248;2022-12-29T13:01:48;93286.25;;;9.11;62.40
53041;BME280;39326;42.650;23.248;2022-12-29T13:05:05;93288.38;;;9.25;61.73
53041;BME280;39326;42.650;23.248;2022-12-29T13:10:52;93286.56;;;9.29;61.51
53041;BME280;39326;42.650;23.248;2022-12-29T13:26:31;93295.13;;;8.96;61.65
53041;BME280;39326;42.650;23.248;2022-12-29T13:31:44;93300.22;;;9.05;61.09
53041;BME280;39326;42.650;23.248;2022-12-29T13:36:51;93299.38;;;9.00;60.89
53041;BME280;39326;42.650;23.248;2022-12-29T13:39:38;93296.72;;;9.00;61.29
53041;BME280;39326;42.650;23.248;2022-12-29T13:42:06;93306.19;;;8.98;61.61
53041;BME280;39326;42.650;23.248;2022-12-29T13:44:43;93294.69;;;8.94;61.46
53041;BME280;39326;42.650;23.248;2022-12-29T13:47:36;93302.91;;;8.85;62.86
53041;BME280;39326;42.650;23.248;2022-12-29T13:50:05;93295.50;;;8.75;62.85
53041;BME280;39326;42.650;23.248;2022-12-29T13:52:48;93300.47;;;8.77;63.01
53041;BME280;39326;42.650;23.248;2022-12-29T13:58:41;93297.22;;;8.64;63.95
53041;BME280;39326;42.650;23.248;2022-12-29T14:01:20;93295.72;;;8.66;63.58
53041;BME280;39326;42.650;23.248;2022-12-29T14:03:53;93302.66;;;8.71;63.04
53041;BME280;39326;42.650;23.248;2022-12-29T14:06:28;93297.66;;;8.69;62.98
53041;BME280;39326;42.650;23.248;2022-12-29T14:09:04;93299.13;;;8.28;63.89
53041;BME280;39326;42.650;23.248;2022-12-29T14:11:40;93317.09;;;8.35;64.08
53041;BME280;39326;42.650;23.248;2022-12-29T14:16:48;93310.53;;;8.29;64.35
53041;BME280;39326;42.650;23.248;2022-12-29T14:19:38;93312.78;;;8.27;64.18
53041;BME280;39326;42.650;23.248;2022-12-29T14:22:06;93307.59;;;8.14;64.14
53041;BME280;39326;42.650;23.248;2022-12-29T14:34:52;93331.22;;;7.84;65.31
53041;BME280;39326;42.650;23.248;2022-12-29T14:37:28;93331.56;;;7.83;65.49
53041;BME280;39326;42.650;23.248;2022-12-29T14:42:46;93337.22;;;7.65;66.04
53041;BME280;39326;42.650;23.248;2022-12-29T14:47:50;93332.78;;;7.54;66.39
53041;BME280;39326;42.650;23.248;2022-12-29T14:58:19;93337.56;;;7.17;67.82
53041;BME280;39326;42.650;23.248;2022-12-29T15:00:46;93344.06;;;7.03;68.25
53041;BME280;39326;42.650;23.248;2022-12-29T15:03:14;93337.19;;;6.87;69.02
53041;BME280;39326;42.650;23.248;2022-12-29T15:05:51;93342.41;;;6.83;69.29
53041;BME280;39326;42.650;23.248;2022-12-29T15:08:20;93333.06;;;6.73;69.86
53041;BME280;39326;42.650;23.248;2022-12-29T15:11:06;93334.63;;;6.62;70.58
53041;BME280;39326;42.650;23.248;2022-12-29T15:13:40;93340.19;;;6.57;70.77
53041;BME280;39326;42.650;23.248;2022-12-29T15:18:52;93332.31;;;6.32;71.50
53041;BME280;39326;42.650;23.248;2022-12-29T15:21:22;93332.69;;;6.19;71.76
53041;BME280;39326;42.650;23.248;2022-12-29T15:23:49;93325.53;;;6.07;72.58
53041;BME280;39326;42.650;23.248;2022-12-29T15:26:16;93328.41;;;6.02;72.59
53041;BME280;39326;42.650;23.248;2022-12-29T15:28:49;93321.91;;;5.99;72.60
53041;BME280;39326;42.650;23.248;2022-12-29T15:31:25;93316.63;;;5.99;72.59
53041;BME280;39326;42.650;23.248;2022-12-29T15:33:53;93319.25;;;5.99;72.73
53041;BME280;39326;42.650;23.248;2022-12-29T15:38:45;93311.31;;;5.99;72.90
53041;BME280;39326;42.650;23.248;2022-12-29T15:41:36;93313.63;;;6.01;73.10
53041;BME280;39326;42.650;23.248;2022-12-29T15:44:39;93313.41;;;6.06;73.14
53041;BME280;39326;42.650;23.248;2022-12-29T15:47:12;93323.66;;;6.08;73.31
53041;BME280;39326;42.650;23.248;2022-12-29T15:49:42;93330.72;;;5.91;73.68
53041;BME280;39326;42.650;23.248;2022-12-29T15:52:09;93325.75;;;6.02;74.29
53041;BME280;39326;42.650;23.248;2022-12-29T15:54:36;93329.50;;;6.01;73.77